sensor_id;sensor_type;location;lat;lon;timestamp;pressure;altitude;pressure_sealevel;temperature
60936;BMP280;46804;51.786;19.520;2023-02-28T00:02:03;153648.06;;;-1.89
60936;BMP280;46804;51.786;19.520;2023-02-28T00:06:05;153696.31;;;-1.70
60936;BMP280;46804;51.786;19.520;2023-02-28T00:10:08;153697.56;;;-1.70
60936;BMP280;46804;51.786;19.520;2023-02-28T00:14:09;153679.78;;;-1.77
60936;BMP280;46804;51.786;19.520;2023-02-28T00:18:09;153663.25;;;-1.83
60936;BMP280;46804;51.786;19.520;2023-02-28T00:22:10;153687.44;;;-1.74
60936;BMP280;46804;51.786;19.520;2023-02-28T00:26:11;153668.34;;;-1.81
60936;BMP280;46804;51.786;19.520;2023-02-28T00:30:17;153667.09;;;-1.82
60936;BMP280;46804;51.786;19.520;2023-02-28T00:34:18;153656.91;;;-1.86
60936;BMP280;46804;51.786;19.520;2023-02-28T00:38:19;153664.53;;;-1.83
60936;BMP280;46804;51.786;19.520;2023-02-28T00:42:19;153637.88;;;-1.93
60936;BMP280;46804;51.786;19.520;2023-02-28T00:46:20;153636.56;;;-1.94
60936;BMP280;46804;51.786;19.520;2023-02-28T00:50:21;153623.88;;;-1.99
60936;BMP280;46804;51.786;19.520;2023-02-28T00:54:22;153626.44;;;-1.98
60936;BMP280;46804;51.786;19.520;2023-02-28T00:58:24;153618.78;;;-2.01
60936;BMP280;46804;51.786;19.520;2023-02-28T01:02:24;153616.28;;;-2.02
60936;BMP280;46804;51.786;19.520;2023-02-28T01:06:25;153594.69;;;-2.10
60936;BMP280;46804;51.786;19.520;2023-02-28T01:10:27;153551.47;;;-2.27
60936;BMP280;46804;51.786;19.520;2023-02-28T01:14:31;153517.19;;;-2.40
60936;BMP280;46804;51.786;19.520;2023-02-28T01:18:32;153512.13;;;-2.42
60936;BMP280;46804;51.786;19.520;2023-02-28T01:22:34;153493.09;;;-2.49
60936;BMP280;46804;51.786;19.520;2023-02-28T01:26:35;153435.97;;;-2.71
60936;BMP280;46804;51.786;19.520;2023-02-28T01:30:36;153405.47;;;-2.83
60936;BMP280;46804;51.786;19.520;2023-02-28T01:34:36;153388.97;;;-2.90
60936;BMP280;46804;51.786;19.520;2023-02-28T01:38:38;153354.72;;;-3.03
60936;BMP280;46804;51.786;19.520;2023-02-28T01:42:39;153324.28;;;-3.15
60936;BMP280;46804;51.786;19.520;2023-02-28T01:46:39;153316.63;;;-3.18
60936;BMP280;46804;51.786;19.520;2023-02-28T01:50:43;153298.88;;;-3.25
60936;BMP280;46804;51.786;19.520;2023-02-28T01:54:50;153298.88;;;-3.25
60936;BMP280;46804;51.786;19.520;2023-02-28T01:58:52;153286.19;;;-3.30
60936;BMP280;46804;51.786;19.520;2023-02-28T02:03:05;153249.38;;;-3.44
60936;BMP280;46804;51.786;19.520;2023-02-28T02:07:06;153229.13;;;-3.52
60936;BMP280;46804;51.786;19.520;2023-02-28T02:11:08;153227.88;;;-3.52
60936;BMP280;46804;51.786;19.520;2023-02-28T02:15:19;153236.72;;;-3.49
60936;BMP280;46804;51.786;19.520;2023-02-28T02:41:52;153151.75;;;-3.82
60936;BMP280;46804;51.786;19.520;2023-02-28T02:45:55;153169.47;;;-3.75
60936;BMP280;46804;51.786;19.520;2023-02-28T02:50:01;153172.03;;;-3.74
60936;BMP280;46804;51.786;19.520;2023-02-28T02:54:13;153159.31;;;-3.79
60936;BMP280;46804;51.786;19.520;2023-02-28T02:58:18;153120.00;;;-3.94
60936;BMP280;46804;51.786;19.520;2023-02-28T03:02:21;153149.19;;;-3.83
60936;BMP280;46804;51.786;19.520;2023-02-28T03:06:22;153174.56;;;-3.73
60936;BMP280;46804;51.786;19.520;2023-02-28T03:10:29;153139.06;;;-3.87
60936;BMP280;46804;51.786;19.520;2023-02-28T03:14:56;153158.06;;;-3.79
60936;BMP280;46804;51.786;19.520;2023-02-28T03:23:48;153158.06;;;-3.79
60936;BMP280;46804;51.786;19.520;2023-02-28T03:28:10;153159.31;;;-3.79
60936;BMP280;46804;51.786;19.520;2023-02-28T03:32:40;153179.63;;;-3.71
60936;BMP280;46804;51.786;19.520;2023-02-28T03:36:46;153169.47;;;-3.75
60936;BMP280;46804;51.786;19.520;2023-02-28T03:40:58;153174.56;;;-3.73
60936;BMP280;46804;51.786;19.520;2023-02-28T03:45:12;153144.13;;;-3.85
60936;BMP280;46804;51.786;19.520;2023-02-28T03:49:18;153118.75;;;-3.95
60936;BMP280;46804;51.786;19.520;2023-02-28T03:53:32;153112.44;;;-3.97
60936;BMP280;46804;51.786;19.520;2023-02-28T04:01:58;153097.19;;;-4.03
60936;BMP280;46804;51.786;19.520;2023-02-28T04:05:58;153088.34;;;-4.06
60936;BMP280;46804;51.786;19.520;2023-02-28T04:09:59;153065.53;;;-4.15
60936;BMP280;46804;51.786;19.520;2023-02-28T04:14:01;153042.66;;;-4.24
60936;BMP280;46804;51.786;19.520;2023-02-28T04:18:02;153037.63;;;-4.26
60936;BMP280;46804;51.786;19.520;2023-02-28T04:22:03;153002.13;;;-4.40
60936;BMP280;46804;51.786;19.520;2023-02-28T04:26:04;153000.84;;;-4.40
60936;BMP280;46804;51.786;19.520;2023-02-28T04:30:06;153019.84;;;-4.33
60936;BMP280;46804;51.786;19.520;2023-02-28T04:34:07;152999.59;;;-4.41
60936;BMP280;46804;51.786;19.520;2023-02-28T04:38:08;153004.66;;;-4.39
60936;BMP280;46804;51.786;19.520;2023-02-28T04:42:09;153030.00;;;-4.29
60936;BMP280;46804;51.786;19.520;2023-02-28T04:46:09;153017.34;;;-4.34
60936;BMP280;46804;51.786;19.520;2023-02-28T04:50:10;153022.41;;;-4.32
60936;BMP280;46804;51.786;19.520;2023-02-28T04:54:11;153023.66;;;-4.32
60936;BMP280;46804;51.786;19.520;2023-02-28T04:58:14;153022.41;;;-4.32
60936;BMP280;46804;51.786;19.520;2023-02-28T05:02:14;153022.41;;;-4.32
60936;BMP280;46804;51.786;19.520;2023-02-28T05:06:15;153009.75;;;-4.37
60936;BMP280;46804;51.786;19.520;2023-02-28T05:10:16;152971.72;;;-4.52
60936;BMP280;46804;51.786;19.520;2023-02-28T05:14:17;152972.97;;;-4.51
60936;BMP280;46804;51.786;19.520;2023-02-28T05:18:17;152936.19;;;-4.66
60936;BMP280;46804;51.786;19.520;2023-02-28T05:22:18;152921.03;;;-4.72
60936;BMP280;46804;51.786;19.520;2023-02-28T05:26:19;152943.81;;;-4.63
60936;BMP280;46804;51.786;19.520;2023-02-28T05:30:20;152948.91;;;-4.61
60936;BMP280;46804;51.786;19.520;2023-02-28T05:34:21;152934.94;;;-4.66
60936;BMP280;46804;51.786;19.520;2023-02-28T05:38:21;152946.34;;;-4.62
60936;BMP280;46804;51.786;19.520;2023-02-28T05:42:22;152956.50;;;-4.58
60936;BMP280;46804;51.786;19.520;2023-02-28T05:46:23;152959.00;;;-4.57
60936;BMP280;46804;51.786;19.520;2023-02-28T05:50:24;152974.22;;;-4.51
60936;BMP280;46804;51.786;19.520;2023-02-28T05:54:24;152981.88;;;-4.48
60936;BMP280;46804;51.786;19.520;2023-02-28T05:58:25;152986.88;;;-4.46
60936;BMP280;46804;51.786;19.520;2023-02-28T06:02:29;153027.50;;;-4.30
60936;BMP280;46804;51.786;19.520;2023-02-28T06:06:30;153007.19;;;-4.38
60936;BMP280;46804;51.786;19.520;2023-02-28T06:10:30;153021.16;;;-4.33
60936;BMP280;46804;51.786;19.520;2023-02-28T06:14:32;153050.31;;;-4.21
60936;BMP280;46804;51.786;19.520;2023-02-28T06:18:33;153051.56;;;-4.21
60936;BMP280;46804;51.786;19.520;2023-02-28T06:22:37;153047.75;;;-4.22
60936;BMP280;46804;51.786;19.520;2023-02-28T06:26:37;153073.13;;;-4.12
60936;BMP280;46804;51.786;19.520;2023-02-28T06:30:38;153137.75;;;-3.87
60936;BMP280;46804;51.786;19.520;2023-02-28T06:34:39;153182.16;;;-3.70
60936;BMP280;46804;51.786;19.520;2023-02-28T06:38:40;153282.38;;;-3.31
60936;BMP280;46804;51.786;19.520;2023-02-28T06:42:41;153375.03;;;-2.95
60936;BMP280;46804;51.786;19.520;2023-02-28T06:46:43;153433.41;;;-2.72
60936;BMP280;46804;51.786;19.520;2023-02-28T06:50:44;153542.63;;;-2.30
60936;BMP280;46804;51.786;19.520;2023-02-28T06:54:45;153613.72;;;-2.03
60936;BMP280;46804;51.786;19.520;2023-02-28T06:58:49;153659.47;;;-1.85
60936;BMP280;46804;51.786;19.520;2023-02-28T07:02:51;153686.13;;;-1.74
60936;BMP280;46804;51.786;19.520;2023-02-28T07:06:51;153758.56;;;-1.46
60936;BMP280;46804;51.786;19.520;2023-02-28T07:10:53;153806.88;;;-1.28
60936;BMP280;46804;51.786;19.520;2023-02-28T07:14:54;153880.59;;;-0.99
60936;BMP280;46804;51.786;19.520;2023-02-28T07:18:56;153937.81;;;-0.77
60936;BMP280;46804;51.786;19.520;2023-02-28T07:22:56;154049.72;;;-0.34
60936;BMP280;46804;51.786;19.520;2023-02-28T07:26:57;154119.72;;;-0.06
60936;BMP280;46804;51.786;19.520;2023-02-28T07:31:04;154203.72;;;0.26
60936;BMP280;46804;51.786;19.520;2023-02-28T07:35:05;154255.91;;;0.46
60936;BMP280;46804;51.786;19.520;2023-02-28T07:39:06;154253.31;;;0.45
60936;BMP280;46804;51.786;19.520;2023-02-28T07:43:09;154353.91;;;0.84
60936;BMP280;46804;51.786;19.520;2023-02-28T07:47:10;154416.31;;;1.08
60936;BMP280;46804;51.786;19.520;2023-02-28T07:51:11;154379.41;;;0.94
60936;BMP280;46804;51.786;19.520;2023-02-28T07:55:12;154421.41;;;1.10
60936;BMP280;46804;51.786;19.520;2023-02-28T07:59:14;154532.25;;;1.53
60936;BMP280;46804;51.786;19.520;2023-02-28T08:03:16;154570.47;;;1.68
60936;BMP280;46804;51.786;19.520;2023-02-28T08:07:18;154516.94;;;1.47
60936;BMP280;46804;51.786;19.520;2023-02-28T08:11:19;154506.72;;;1.43
60936;BMP280;46804;51.786;19.520;2023-02-28T08:15:19;154595.94;;;1.78
60936;BMP280;46804;51.786;19.520;2023-02-28T08:19:20;154681.31;;;2.11
60936;BMP280;46804;51.786;19.520;2023-02-28T08:23:21;154759.09;;;2.41
60936;BMP280;46804;51.786;19.520;2023-02-28T08:27:21;154821.56;;;2.65
60936;BMP280;46804;51.786;19.520;2023-02-28T08:31:22;155012.94;;;3.39
60936;BMP280;46804;51.786;19.520;2023-02-28T08:35:23;155090.78;;;3.69
60936;BMP280;46804;51.786;19.520;2023-02-28T08:39:24;155158.44;;;3.95
60936;BMP280;46804;51.786;19.520;2023-02-28T08:43:25;155243.97;;;4.28
60936;BMP280;46804;51.786;19.520;2023-02-28T08:47:25;155379.38;;;4.80
60936;BMP280;46804;51.786;19.520;2023-02-28T08:51:26;155442.03;;;5.05
60936;BMP280;46804;51.786;19.520;2023-02-28T08:55:27;155495.66;;;5.25
60936;BMP280;46804;51.786;19.520;2023-02-28T08:59:28;155563.41;;;5.51
60936;BMP280;46804;51.786;19.520;2023-02-28T09:03:29;155674.72;;;5.94
60936;BMP280;46804;51.786;19.520;2023-02-28T09:07:29;155916.47;;;6.87
60936;BMP280;46804;51.786;19.520;2023-02-28T09:11:30;156121.28;;;7.66
60936;BMP280;46804;51.786;19.520;2023-02-28T09:15:31;156154.56;;;7.79
60936;BMP280;46804;51.786;19.520;2023-02-28T09:19:31;156439.03;;;8.88
60936;BMP280;46804;51.786;19.520;2023-02-28T09:23:32;156553.09;;;9.32
60936;BMP280;46804;51.786;19.520;2023-02-28T09:27:33;156606.97;;;9.53
60936;BMP280;46804;51.786;19.520;2023-02-28T09:31:34;156398.03;;;8.73
60936;BMP280;46804;51.786;19.520;2023-02-28T09:35:34;156496.69;;;9.11
60936;BMP280;46804;51.786;19.520;2023-02-28T09:39:37;156606.97;;;9.53
60936;BMP280;46804;51.786;19.520;2023-02-28T09:43:41;156610.78;;;9.54
60936;BMP280;46804;51.786;19.520;2023-02-28T09:47:45;156699.31;;;9.88
60936;BMP280;46804;51.786;19.520;2023-02-28T09:51:51;157152.47;;;11.62
60936;BMP280;46804;51.786;19.520;2023-02-28T09:55:58;156805.84;;;10.29
60936;BMP280;46804;51.786;19.520;2023-02-28T10:08:40;157178.13;;;11.72
60936;BMP280;46804;51.786;19.520;2023-02-28T10:12:47;157191.00;;;11.77
60936;BMP280;46804;51.786;19.520;2023-02-28T10:16:53;157253.97;;;12.01
60936;BMP280;46804;51.786;19.520;2023-02-28T10:20:56;157520.03;;;13.03
60936;BMP280;46804;51.786;19.520;2023-02-28T10:24:57;157631.88;;;13.46
60936;BMP280;46804;51.786;19.520;2023-02-28T10:29:00;157840.34;;;14.26
60936;BMP280;46804;51.786;19.520;2023-02-28T10:33:01;157669.19;;;13.60
60936;BMP280;46804;51.786;19.520;2023-02-28T10:37:03;157387.56;;;12.53
60936;BMP280;46804;51.786;19.520;2023-02-28T10:41:09;157855.78;;;14.32
60936;BMP280;46804;51.786;19.520;2023-02-28T10:45:15;158023.09;;;14.96
60936;BMP280;46804;51.786;19.520;2023-02-28T10:49:22;158060.47;;;15.10
60936;BMP280;46804;51.786;19.520;2023-02-28T10:57:27;158312.94;;;16.07
60936;BMP280;46804;51.786;19.520;2023-02-28T11:01:42;158426.38;;;16.50
60936;BMP280;46804;51.786;19.520;2023-02-28T11:05:45;157815.91;;;14.17
60936;BMP280;46804;51.786;19.520;2023-02-28T11:09:49;158099.16;;;15.25
60936;BMP280;46804;51.786;19.520;2023-02-28T11:13:54;158355.53;;;16.23
60936;BMP280;46804;51.786;19.520;2023-02-28T11:22:17;158215.03;;;15.69
60936;BMP280;46804;51.786;19.520;2023-02-28T11:26:45;157812.03;;;14.15
60936;BMP280;46804;51.786;19.520;2023-02-28T11:39:12;157975.50;;;14.78
60936;BMP280;46804;51.786;19.520;2023-02-28T11:43:45;157886.66;;;14.44
60936;BMP280;46804;51.786;19.520;2023-02-28T11:56:09;157257.81;;;12.03
60936;BMP280;46804;51.786;19.520;2023-02-28T12:00:37;157287.38;;;12.14
60936;BMP280;46804;51.786;19.520;2023-02-28T12:09:04;157153.75;;;11.63
60936;BMP280;46804;51.786;19.520;2023-02-28T12:26:39;157361.88;;;12.43
60936;BMP280;46804;51.786;19.520;2023-02-28T12:30:49;157307.88;;;12.22
60936;BMP280;46804;51.786;19.520;2023-02-28T12:35:00;156985.53;;;10.98
60936;BMP280;46804;51.786;19.520;2023-02-28T12:39:17;157054.84;;;11.25
60936;BMP280;46804;51.786;19.520;2023-02-28T12:43:20;156954.69;;;10.86
60936;BMP280;46804;51.786;19.520;2023-02-28T12:47:22;156988.06;;;10.99
60936;BMP280;46804;51.786;19.520;2023-02-28T12:51:24;157000.91;;;11.04
60936;BMP280;46804;51.786;19.520;2023-02-28T12:55:53;156278.88;;;8.27
60936;BMP280;46804;51.786;19.520;2023-02-28T13:00:08;156610.78;;;9.54
60936;BMP280;46804;51.786;19.520;2023-02-28T13:04:42;157058.66;;;11.26
60936;BMP280;46804;51.786;19.520;2023-02-28T13:08:55;157009.91;;;11.08
60936;BMP280;46804;51.786;19.520;2023-02-28T13:13:02;157210.25;;;11.85
60936;BMP280;46804;51.786;19.520;2023-02-28T13:21:29;157440.28;;;12.73
60936;BMP280;46804;51.786;19.520;2023-02-28T13:29:39;157403.00;;;12.58
60936;BMP280;46804;51.786;19.520;2023-02-28T13:37:50;156882.81;;;10.59
60936;BMP280;46804;51.786;19.520;2023-02-28T13:41:52;157383.75;;;12.51
60936;BMP280;46804;51.786;19.520;2023-02-28T13:46:05;157574.00;;;13.24
60936;BMP280;46804;51.786;19.520;2023-02-28T13:50:35;157520.03;;;13.03
60936;BMP280;46804;51.786;19.520;2023-02-28T13:54:57;157979.38;;;14.79
60936;BMP280;46804;51.786;19.520;2023-02-28T13:59:46;157926.56;;;14.59
60936;BMP280;46804;51.786;19.520;2023-02-28T14:08:28;157832.63;;;14.23
60936;BMP280;46804;51.786;19.520;2023-02-28T14:12:58;157845.50;;;14.28
60936;BMP280;46804;51.786;19.520;2023-02-28T14:17:01;157687.19;;;13.67
60936;BMP280;46804;51.786;19.520;2023-02-28T14:25:37;157529.00;;;13.07
60936;BMP280;46804;51.786;19.520;2023-02-28T14:34:24;157368.31;;;12.45
60936;BMP280;46804;51.786;19.520;2023-02-28T14:38:48;157345.16;;;12.36
60936;BMP280;46804;51.786;19.520;2023-02-28T14:42:56;156925.19;;;10.75
60936;BMP280;46804;51.786;19.520;2023-02-28T14:46:59;157157.63;;;11.64
60936;BMP280;46804;51.786;19.520;2023-02-28T14:51:06;157304.06;;;12.21
60936;BMP280;46804;51.786;19.520;2023-02-28T14:55:13;157239.78;;;11.96
60936;BMP280;46804;51.786;19.520;2023-02-28T14:59:24;157237.25;;;11.95
60936;BMP280;46804;51.786;19.520;2023-02-28T15:07:29;156586.44;;;9.45
60936;BMP280;46804;51.786;19.520;2023-02-28T15:11:31;156234.03;;;8.10
60936;BMP280;46804;51.786;19.520;2023-02-28T15:19:48;155928.00;;;6.92
60936;BMP280;46804;51.786;19.520;2023-02-28T15:23:54;156111.03;;;7.62
60936;BMP280;46804;51.786;19.520;2023-02-28T15:27:56;155915.16;;;6.87
60936;BMP280;46804;51.786;19.520;2023-02-28T15:32:06;155939.50;;;6.96
60936;BMP280;46804;51.786;19.520;2023-02-28T15:36:15;155765.50;;;6.29
60936;BMP280;46804;51.786;19.520;2023-02-28T15:40:31;155896.00;;;6.79
60936;BMP280;46804;51.786;19.520;2023-02-28T15:44:33;155883.22;;;6.75
60936;BMP280;46804;51.786;19.520;2023-02-28T15:48:53;155752.72;;;6.24
60936;BMP280;46804;51.786;19.520;2023-02-28T15:52:54;155692.59;;;6.01
60936;BMP280;46804;51.786;19.520;2023-02-28T15:56:57;155517.41;;;5.34
60936;BMP280;46804;51.786;19.520;2023-02-28T16:05:22;155159.72;;;3.96
60936;BMP280;46804;51.786;19.520;2023-02-28T16:09:31;155148.22;;;3.91
60936;BMP280;46804;51.786;19.520;2023-02-28T16:13:32;155065.28;;;3.59
60936;BMP280;46804;51.786;19.520;2023-02-28T16:17:35;154996.34;;;3.33
60936;BMP280;46804;51.786;19.520;2023-02-28T16:21:37;154981.06;;;3.27
60936;BMP280;46804;51.786;19.520;2023-02-28T16:25:41;154915.97;;;3.02
60936;BMP280;46804;51.786;19.520;2023-02-28T16:29:42;154900.66;;;2.96
60936;BMP280;46804;51.786;19.520;2023-02-28T16:33:44;154894.28;;;2.93
60936;BMP280;46804;51.786;19.520;2023-02-28T16:37:45;154843.25;;;2.73
60936;BMP280;46804;51.786;19.520;2023-02-28T16:41:47;154765.47;;;2.43
60936;BMP280;46804;51.786;19.520;2023-02-28T16:45:54;154705.56;;;2.20
60936;BMP280;46804;51.786;19.520;2023-02-28T16:49:55;154713.22;;;2.23
60936;BMP280;46804;51.786;19.520;2023-02-28T16:53:56;154646.91;;;1.98
60936;BMP280;46804;51.786;19.520;2023-02-28T16:57:58;154620.19;;;1.87
60936;BMP280;46804;51.786;19.520;2023-02-28T17:01:59;154583.19;;;1.73
60936;BMP280;46804;51.786;19.520;2023-02-28T17:06:00;154551.34;;;1.61
60936;BMP280;46804;51.786;19.520;2023-02-28T17:10:02;154537.34;;;1.55
60936;BMP280;46804;51.786;19.520;2023-02-28T17:14:09;154483.81;;;1.34
60936;BMP280;46804;51.786;19.520;2023-02-28T17:18:14;154454.53;;;1.23
60936;BMP280;46804;51.786;19.520;2023-02-28T17:22:16;154390.84;;;0.99
60936;BMP280;46804;51.786;19.520;2023-02-28T17:26:19;154388.28;;;0.98
60936;BMP280;46804;51.786;19.520;2023-02-28T17:30:26;154359.00;;;0.86
60936;BMP280;46804;51.786;19.520;2023-02-28T17:34:30;154315.69;;;0.69
60936;BMP280;46804;51.786;19.520;2023-02-28T17:38:31;154308.06;;;0.67
60936;BMP280;46804;51.786;19.520;2023-02-28T17:42:32;154306.81;;;0.66
60936;BMP280;46804;51.786;19.520;2023-02-28T17:46:32;154294.09;;;0.61
60936;BMP280;46804;51.786;19.520;2023-02-28T17:50:33;154278.81;;;0.55
60936;BMP280;46804;51.786;19.520;2023-02-28T17:54:34;154268.59;;;0.51
60936;BMP280;46804;51.786;19.520;2023-02-28T17:58:35;154255.91;;;0.46
60936;BMP280;46804;51.786;19.520;2023-02-28T18:02:35;154211.34;;;0.29
60936;BMP280;46804;51.786;19.520;2023-02-28T18:06:38;154188.44;;;0.20
60936;BMP280;46804;51.786;19.520;2023-02-28T18:10:46;154193.53;;;0.22
60936;BMP280;46804;51.786;19.520;2023-02-28T18:14:46;154169.31;;;0.13
60936;BMP280;46804;51.786;19.520;2023-02-28T18:18:48;154157.88;;;0.08
60936;BMP280;46804;51.786;19.520;2023-02-28T18:22:49;154098.09;;;-0.15
60936;BMP280;46804;51.786;19.520;2023-02-28T18:26:50;154061.19;;;-0.29
60936;BMP280;46804;51.786;19.520;2023-02-28T18:30:51;154029.34;;;-0.41
60936;BMP280;46804;51.786;19.520;2023-02-28T18:34:52;154012.88;;;-0.48
60936;BMP280;46804;51.786;19.520;2023-02-28T18:38:53;153989.94;;;-0.57
60936;BMP280;46804;51.786;19.520;2023-02-28T18:42:54;153988.66;;;-0.57
60936;BMP280;46804;51.786;19.520;2023-02-28T18:46:54;153968.34;;;-0.65
60936;BMP280;46804;51.786;19.520;2023-02-28T18:50:55;153965.78;;;-0.66
60936;BMP280;46804;51.786;19.520;2023-02-28T18:54:56;153958.16;;;-0.69
60936;BMP280;46804;51.786;19.520;2023-02-28T18:58:57;153931.44;;;-0.79
60936;BMP280;46804;51.786;19.520;2023-02-28T19:02:58;153922.53;;;-0.83
60936;BMP280;46804;51.786;19.520;2023-02-28T19:06:59;153911.09;;;-0.87
60936;BMP280;46804;51.786;19.520;2023-02-28T19:11:06;153895.88;;;-0.93
60936;BMP280;46804;51.786;19.520;2023-02-28T19:15:08;153875.50;;;-1.01
60936;BMP280;46804;51.786;19.520;2023-02-28T19:19:09;153845.03;;;-1.13
60936;BMP280;46804;51.786;19.520;2023-02-28T19:23:09;153820.81;;;-1.22
60936;BMP280;46804;51.786;19.520;2023-02-28T19:27:12;153801.78;;;-1.30
60936;BMP280;46804;51.786;19.520;2023-02-28T19:31:14;153815.75;;;-1.24
60936;BMP280;46804;51.786;19.520;2023-02-28T19:35:15;153814.47;;;-1.25
60936;BMP280;46804;51.786;19.520;2023-02-28T19:39:16;153805.63;;;-1.28
60936;BMP280;46804;51.786;19.520;2023-02-28T19:43:18;153800.53;;;-1.30
60936;BMP280;46804;51.786;19.520;2023-02-28T19:47:19;153766.22;;;-1.43
60936;BMP280;46804;51.786;19.520;2023-02-28T19:51:20;153714.09;;;-1.64
60936;BMP280;46804;51.786;19.520;2023-02-28T19:55:21;153693.78;;;-1.71
60936;BMP280;46804;51.786;19.520;2023-02-28T19:59:24;153677.25;;;-1.78
60936;BMP280;46804;51.786;19.520;2023-02-28T20:03:25;153642.97;;;-1.91
60936;BMP280;46804;51.786;19.520;2023-02-28T20:07:26;153621.34;;;-2.00
60936;BMP280;46804;51.786;19.520;2023-02-28T20:11:27;153575.66;;;-2.17
60936;BMP280;46804;51.786;19.520;2023-02-28T20:15:29;153545.13;;;-2.29
60936;BMP280;46804;51.786;19.520;2023-02-28T20:19:31;153534.97;;;-2.33
60936;BMP280;46804;51.786;19.520;2023-02-28T20:23:32;153528.63;;;-2.36
60936;BMP280;46804;51.786;19.520;2023-02-28T20:27:33;153565.47;;;-2.21
60936;BMP280;46804;51.786;19.520;2023-02-28T20:31:34;153583.25;;;-2.14
60936;BMP280;46804;51.786;19.520;2023-02-28T20:35:39;153583.25;;;-2.14
60936;BMP280;46804;51.786;19.520;2023-02-28T20:39:40;153597.19;;;-2.09
60936;BMP280;46804;51.786;19.520;2023-02-28T20:43:41;153562.91;;;-2.22
60936;BMP280;46804;51.786;19.520;2023-02-28T20:47:42;153557.81;;;-2.24
60936;BMP280;46804;51.786;19.520;2023-02-28T20:51:43;153524.84;;;-2.37
60936;BMP280;46804;51.786;19.520;2023-02-28T20:55:58;153524.84;;;-2.37
60936;BMP280;46804;51.786;19.520;2023-02-28T20:59:59;153490.53;;;-2.50
60936;BMP280;46804;51.786;19.520;2023-02-28T21:04:02;153491.84;;;-2.50
60936;BMP280;46804;51.786;19.520;2023-02-28T21:08:05;153486.75;;;-2.52
60936;BMP280;46804;51.786;19.520;2023-02-28T21:12:06;153467.66;;;-2.59
60936;BMP280;46804;51.786;19.520;2023-02-28T21:16:11;153467.66;;;-2.59
60936;BMP280;46804;51.786;19.520;2023-02-28T21:20:12;153462.59;;;-2.61
60936;BMP280;46804;51.786;19.520;2023-02-28T21:24:21;153479.09;;;-2.55
60936;BMP280;46804;51.786;19.520;2023-02-28T21:28:22;153480.41;;;-2.54
60936;BMP280;46804;51.786;19.520;2023-02-28T21:32:23;153467.66;;;-2.59
60936;BMP280;46804;51.786;19.520;2023-02-28T21:36:26;153460.06;;;-2.62
60936;BMP280;46804;51.786;19.520;2023-02-28T21:40:28;153458.81;;;-2.63
60936;BMP280;46804;51.786;19.520;2023-02-28T21:44:30;153460.06;;;-2.62
60936;BMP280;46804;51.786;19.520;2023-02-28T21:48:31;153424.53;;;-2.76
60936;BMP280;46804;51.786;19.520;2023-02-28T21:52:32;153410.56;;;-2.81
60936;BMP280;46804;51.786;19.520;2023-02-28T21:56:33;153394.06;;;-2.88
60936;BMP280;46804;51.786;19.520;2023-02-28T22:00:34;153375.03;;;-2.95
60936;BMP280;46804;51.786;19.520;2023-02-28T22:04:35;153375.03;;;-2.95
60936;BMP280;46804;51.786;19.520;2023-02-28T22:08:38;153348.38;;;-3.05
60936;BMP280;46804;51.786;19.520;2023-02-28T22:12:39;153345.84;;;-3.06
60936;BMP280;46804;51.786;19.520;2023-02-28T22:16:39;153328.03;;;-3.13
60936;BMP280;46804;51.786;19.520;2023-02-28T22:20:40;153320.44;;;-3.16
60936;BMP280;46804;51.786;19.520;2023-02-28T22:24:41;153306.50;;;-3.22
60936;BMP280;46804;51.786;19.520;2023-02-28T22:28:41;153330.59;;;-3.12
60936;BMP280;46804;51.786;19.520;2023-02-28T22:32:42;153323.00;;;-3.15
60936;BMP280;46804;51.786;19.520;2023-02-28T22:36:43;153331.88;;;-3.12
60936;BMP280;46804;51.786;19.520;2023-02-28T22:40:44;153309.03;;;-3.21
60936;BMP280;46804;51.786;19.520;2023-02-28T22:44:45;153305.22;;;-3.22
60936;BMP280;46804;51.786;19.520;2023-02-28T22:48:46;153298.88;;;-3.25
60936;BMP280;46804;51.786;19.520;2023-02-28T22:52:48;153311.53;;;-3.20
60936;BMP280;46804;51.786;19.520;2023-02-28T22:56:49;153306.50;;;-3.22
60936;BMP280;46804;51.786;19.520;2023-02-28T23:00:50;153293.78;;;-3.27
60936;BMP280;46804;51.786;19.520;2023-02-28T23:04:54;153291.28;;;-3.28
60936;BMP280;46804;51.786;19.520;2023-02-28T23:08:57;153265.88;;;-3.38
60936;BMP280;46804;51.786;19.520;2023-02-28T23:12:58;153239.28;;;-3.48
60936;BMP280;46804;51.786;19.520;2023-02-28T23:17:00;153249.38;;;-3.44
60936;BMP280;46804;51.786;19.520;2023-02-28T23:21:00;153221.47;;;-3.55
60936;BMP280;46804;51.786;19.520;2023-02-28T23:25:01;153224.03;;;-3.54
60936;BMP280;46804;51.786;19.520;2023-02-28T23:29:02;153224.03;;;-3.54
60936;BMP280;46804;51.786;19.520;2023-02-28T23:33:05;153222.78;;;-3.54
60936;BMP280;46804;51.786;19.520;2023-02-28T23:37:05;153221.47;;;-3.55
60936;BMP280;46804;51.786;19.520;2023-02-28T23:41:10;153207.53;;;-3.60
60936;BMP280;46804;51.786;19.520;2023-02-28T23:45:11;153199.94;;;-3.63
60936;BMP280;46804;51.786;19.520;2023-02-28T23:49:13;153184.72;;;-3.69
60936;BMP280;46804;51.786;19.520;2023-02-28T23:53:13;153182.16;;;-3.70
60936;BMP280;46804;51.786;19.520;2023-02-28T23:57:14;153179.63;;;-3.71
